sensor_id;sensor_type;location;lat;lon;timestamp;pressure;altitude;pressure_sealevel;temperature;humidity
52953;BME280;38815;55.932;-3.232;2022-10-23T00:02:22;99795.22;;;18.56;65.62
52953;BME280;38815;55.932;-3.232;2022-10-23T00:04:50;99798.81;;;18.57;65.58
52953;BME280;38815;55.932;-3.232;2022-10-23T00:07:16;99788.09;;;18.55;65.65
52953;BME280;38815;55.932;-3.232;2022-10-23T00:09:41;99781.66;;;18.55;65.65
52953;BME280;38815;55.932;-3.232;2022-10-23T00:12:06;99786.59;;;18.54;65.84
52953;BME280;38815;55.932;-3.232;2022-10-23T00:14:31;99781.47;;;18.53;65.86
52953;BME280;38815;55.932;-3.232;2022-10-23T00:16:57;99776.59;;;18.53;66.01
52953;BME280;38815;55.932;-3.232;2022-10-23T00:19:22;99795.59;;;18.53;65.55
52953;BME280;38815;55.932;-3.232;2022-10-23T00:21:47;99794.28;;;18.54;65.78
52953;BME280;38815;55.932;-3.232;2022-10-23T00:24:13;99793.31;;;18.51;65.83
52953;BME280;38815;55.932;-3.232;2022-10-23T00:26:38;99794.09;;;18.52;65.84
52953;BME280;38815;55.932;-3.232;2022-10-23T00:29:04;99797.47;;;18.50;65.81
52953;BME280;38815;55.932;-3.232;2022-10-23T00:31:30;99795.41;;;18.51;65.50
52953;BME280;38815;55.932;-3.232;2022-10-23T00:33:56;99793.88;;;18.50;65.44
52953;BME280;38815;55.932;-3.232;2022-10-23T00:36:21;99799.53;;;18.50;65.75
52953;BME280;38815;55.932;-3.232;2022-10-23T00:38:47;99798.75;;;18.49;65.50
52953;BME280;38815;55.932;-3.232;2022-10-23T00:41:14;99795.22;;;18.49;65.46
52953;BME280;38815;55.932;-3.232;2022-10-23T00:43:56;99800.09;;;18.48;65.73
52953;BME280;38815;55.932;-3.232;2022-10-23T00:46:22;99792.94;;;18.47;65.62
52953;BME280;38815;55.932;-3.232;2022-10-23T00:48:47;99802.91;;;18.48;65.70
52953;BME280;38815;55.932;-3.232;2022-10-23T00:51:12;99797.25;;;18.48;65.75
52953;BME280;38815;55.932;-3.232;2022-10-23T00:53:38;99804.22;;;18.47;65.95
52953;BME280;38815;55.932;-3.232;2022-10-23T00:56:03;99798.59;;;18.47;65.71
52953;BME280;38815;55.932;-3.232;2022-10-23T00:58:29;99799.88;;;18.46;65.84
52953;BME280;38815;55.932;-3.232;2022-10-23T01:00:55;99794.81;;;18.45;65.92
52953;BME280;38815;55.932;-3.232;2022-10-23T01:03:21;99797.63;;;18.45;66.03
52953;BME280;38815;55.932;-3.232;2022-10-23T01:05:49;99796.13;;;18.44;66.17
52953;BME280;38815;55.932;-3.232;2022-10-23T01:08:40;99797.63;;;18.45;65.99
52953;BME280;38815;55.932;-3.232;2022-10-23T01:16:10;99789.72;;;18.43;66.12
52953;BME280;38815;55.932;-3.232;2022-10-23T01:19:01;99795.91;;;18.42;65.86
52953;BME280;38815;55.932;-3.232;2022-10-23T01:34:11;99775.72;;;18.38;65.83
52953;BME280;38815;55.932;-3.232;2022-10-23T01:36:37;99777.81;;;18.37;66.40
52953;BME280;38815;55.932;-3.232;2022-10-23T01:39:06;99777.81;;;18.37;66.21
52953;BME280;38815;55.932;-3.232;2022-10-23T01:41:35;99781.94;;;18.36;66.24
52953;BME280;38815;55.932;-3.232;2022-10-23T01:46:38;99764.25;;;18.36;66.30
52953;BME280;38815;55.932;-3.232;2022-10-23T01:49:04;99759.91;;;18.35;66.33
52953;BME280;38815;55.932;-3.232;2022-10-23T01:51:31;99762.75;;;18.35;66.25
52953;BME280;38815;55.932;-3.232;2022-10-23T01:53:58;99762.75;;;18.35;65.97
52953;BME280;38815;55.932;-3.232;2022-10-23T01:56:34;99755.59;;;18.34;66.38
52953;BME280;38815;55.932;-3.232;2022-10-23T01:59:02;99761.97;;;18.34;66.26
52953;BME280;38815;55.932;-3.232;2022-10-23T02:01:28;99764.59;;;18.32;66.33
52953;BME280;38815;55.932;-3.232;2022-10-23T02:03:55;99758.94;;;18.32;65.94
52953;BME280;38815;55.932;-3.232;2022-10-23T02:06:21;99763.88;;;18.32;66.06
52953;BME280;38815;55.932;-3.232;2022-10-23T02:08:47;99757.47;;;18.31;66.28
52953;BME280;38815;55.932;-3.232;2022-10-23T02:11:13;99753.13;;;18.30;66.71
52953;BME280;38815;55.932;-3.232;2022-10-23T02:19:02;99752.38;;;18.30;66.33
52953;BME280;38815;55.932;-3.232;2022-10-23T02:24:10;99753.69;;;18.29;66.40
52953;BME280;38815;55.932;-3.232;2022-10-23T02:26:41;99742.94;;;18.27;66.13
52953;BME280;38815;55.932;-3.232;2022-10-23T02:31:32;99733.75;;;18.27;65.93
52953;BME280;38815;55.932;-3.232;2022-10-23T02:33:58;99730.91;;;18.27;66.51
52953;BME280;38815;55.932;-3.232;2022-10-23T02:36:23;99726.56;;;18.26;66.25
52953;BME280;38815;55.932;-3.232;2022-10-23T02:38:48;99734.31;;;18.25;66.32
52953;BME280;38815;55.932;-3.232;2022-10-23T02:43:48;99730.16;;;18.26;66.05
52953;BME280;38815;55.932;-3.232;2022-10-23T02:46:28;99725.84;;;18.25;66.25
52953;BME280;38815;55.932;-3.232;2022-10-23T02:51:43;99724.31;;;18.24;66.00
52953;BME280;38815;55.932;-3.232;2022-10-23T02:54:18;99727.13;;;18.24;66.18
52953;BME280;38815;55.932;-3.232;2022-10-23T02:56:52;99717.72;;;18.22;66.27
52953;BME280;38815;55.932;-3.232;2022-10-23T02:59:28;99719.22;;;18.23;65.96
52953;BME280;38815;55.932;-3.232;2022-10-23T03:02:01;99719.22;;;18.23;66.25
52953;BME280;38815;55.932;-3.232;2022-10-23T03:04:28;99719.22;;;18.23;65.70
52953;BME280;38815;55.932;-3.232;2022-10-23T03:06:55;99723.53;;;18.24;65.94
52953;BME280;38815;55.932;-3.232;2022-10-23T03:09:21;99717.72;;;18.22;65.86
52953;BME280;38815;55.932;-3.232;2022-10-23T03:11:46;99712.81;;;18.22;66.17
52953;BME280;38815;55.932;-3.232;2022-10-23T03:14:11;99714.16;;;18.21;65.99
52953;BME280;38815;55.932;-3.232;2022-10-23T03:16:37;99709.06;;;18.20;65.80
52953;BME280;38815;55.932;-3.232;2022-10-23T03:19:02;99717.53;;;18.20;66.08
52953;BME280;38815;55.932;-3.232;2022-10-23T03:21:28;99716.00;;;18.19;65.86
52953;BME280;38815;55.932;-3.232;2022-10-23T03:23:53;99718.81;;;18.19;66.19
52953;BME280;38815;55.932;-3.232;2022-10-23T03:26:18;99717.31;;;18.18;66.18
52953;BME280;38815;55.932;-3.232;2022-10-23T03:28:43;99714.50;;;18.18;66.02
52953;BME280;38815;55.932;-3.232;2022-10-23T03:31:09;99709.63;;;18.18;65.78
52953;BME280;38815;55.932;-3.232;2022-10-23T03:33:34;99711.69;;;18.18;66.00
52953;BME280;38815;55.932;-3.232;2022-10-23T03:35:59;99710.19;;;18.17;66.14
52953;BME280;38815;55.932;-3.232;2022-10-23T03:38:25;99711.47;;;18.16;66.03
52953;BME280;38815;55.932;-3.232;2022-10-23T03:40:50;99713.75;;;18.17;66.02
52953;BME280;38815;55.932;-3.232;2022-10-23T03:43:15;99712.81;;;18.15;66.12
52953;BME280;38815;55.932;-3.232;2022-10-23T03:45:41;99714.09;;;18.14;66.13
52953;BME280;38815;55.932;-3.232;2022-10-23T03:48:06;99714.88;;;18.14;66.03
52953;BME280;38815;55.932;-3.232;2022-10-23T03:50:32;99711.28;;;18.14;65.91
52953;BME280;38815;55.932;-3.232;2022-10-23T03:52:57;99711.28;;;18.14;66.01
52953;BME280;38815;55.932;-3.232;2022-10-23T03:55:23;99707.72;;;18.13;65.86
52953;BME280;38815;55.932;-3.232;2022-10-23T03:57:51;99706.97;;;18.13;65.76
52953;BME280;38815;55.932;-3.232;2022-10-23T04:00:16;99709.78;;;18.13;66.03
52953;BME280;38815;55.932;-3.232;2022-10-23T04:02:41;99707.53;;;18.11;65.86
52953;BME280;38815;55.932;-3.232;2022-10-23T04:05:07;99713.91;;;18.12;66.07
52953;BME280;38815;55.932;-3.232;2022-10-23T04:07:32;99721.63;;;18.11;65.90
52953;BME280;38815;55.932;-3.232;2022-10-23T04:09:57;99727.28;;;18.11;66.21
52953;BME280;38815;55.932;-3.232;2022-10-23T04:12:22;99720.09;;;18.10;65.78
52953;BME280;38815;55.932;-3.232;2022-10-23T04:14:48;99713.72;;;18.10;66.14
52953;BME280;38815;55.932;-3.232;2022-10-23T04:17:13;99713.72;;;18.10;65.83
52953;BME280;38815;55.932;-3.232;2022-10-23T04:19:38;99709.38;;;18.09;65.63
52953;BME280;38815;55.932;-3.232;2022-10-23T04:22:04;99706.56;;;18.09;65.96
52953;BME280;38815;55.932;-3.232;2022-10-23T04:24:29;99711.47;;;18.08;66.04
52953;BME280;38815;55.932;-3.232;2022-10-23T04:26:54;99720.66;;;18.09;65.94
52953;BME280;38815;55.932;-3.232;2022-10-23T04:29:19;99719.91;;;18.08;65.65
52953;BME280;38815;55.932;-3.232;2022-10-23T04:31:47;99707.13;;;18.07;65.76
52953;BME280;38815;55.932;-3.232;2022-10-23T04:34:13;99700.72;;;18.07;65.60
52953;BME280;38815;55.932;-3.232;2022-10-23T04:36:38;99709.94;;;18.07;65.74
52953;BME280;38815;55.932;-3.232;2022-10-23T04:39:03;99714.09;;;18.06;65.95
52953;BME280;38815;55.932;-3.232;2022-10-23T04:41:29;99713.31;;;18.06;65.61
52953;BME280;38815;55.932;-3.232;2022-10-23T04:43:54;99714.63;;;18.05;65.92
52953;BME280;38815;55.932;-3.232;2022-10-23T04:46:19;99707.47;;;18.04;66.10
52953;BME280;38815;55.932;-3.232;2022-10-23T04:48:45;99713.13;;;18.04;66.10
52953;BME280;38815;55.932;-3.232;2022-10-23T04:51:10;99704.66;;;18.04;66.05
52953;BME280;38815;55.932;-3.232;2022-10-23T04:53:35;99694.13;;;18.04;65.65
52953;BME280;38815;55.932;-3.232;2022-10-23T04:56:03;99699.00;;;18.04;65.68
52953;BME280;38815;55.932;-3.232;2022-10-23T04:58:28;99697.50;;;18.03;65.67
52953;BME280;38815;55.932;-3.232;2022-10-23T05:00:53;99698.81;;;18.02;65.66
52953;BME280;38815;55.932;-3.232;2022-10-23T05:03:19;99700.34;;;18.03;65.87
52953;BME280;38815;55.932;-3.232;2022-10-23T05:05:45;99691.09;;;18.02;65.97
52953;BME280;38815;55.932;-3.232;2022-10-23T05:08:10;99689.63;;;18.01;65.56
52953;BME280;38815;55.932;-3.232;2022-10-23T05:10:36;99693.94;;;18.02;65.97
52953;BME280;38815;55.932;-3.232;2022-10-23T05:13:01;99685.25;;;18.00;66.01
52953;BME280;38815;55.932;-3.232;2022-10-23T05:15:27;99693.00;;;18.00;65.67
52953;BME280;38815;55.932;-3.232;2022-10-23T05:17:54;99688.09;;;18.00;65.80
52953;BME280;38815;55.932;-3.232;2022-10-23T05:20:22;99691.47;;;17.99;65.72
52953;BME280;38815;55.932;-3.232;2022-10-23T05:22:48;99694.28;;;17.99;66.01
52953;BME280;38815;55.932;-3.232;2022-10-23T05:25:15;99692.22;;;17.99;65.94
52953;BME280;38815;55.932;-3.232;2022-10-23T05:27:40;99685.06;;;17.98;65.73
52953;BME280;38815;55.932;-3.232;2022-10-23T05:30:06;99685.06;;;17.98;65.96
52953;BME280;38815;55.932;-3.232;2022-10-23T05:32:31;99685.81;;;17.99;65.88
52953;BME280;38815;55.932;-3.232;2022-10-23T05:34:58;99680.75;;;17.97;65.80
52953;BME280;38815;55.932;-3.232;2022-10-23T05:37:24;99688.44;;;17.97;65.71
52953;BME280;38815;55.932;-3.232;2022-10-23T05:39:50;99677.94;;;17.97;65.70
52953;BME280;38815;55.932;-3.232;2022-10-23T05:42:15;99673.59;;;17.96;65.84
52953;BME280;38815;55.932;-3.232;2022-10-23T05:44:41;99678.47;;;17.96;65.70
52953;BME280;38815;55.932;-3.232;2022-10-23T05:47:06;99675.66;;;17.96;65.79
52953;BME280;38815;55.932;-3.232;2022-10-23T05:49:32;99677.72;;;17.95;65.94
52953;BME280;38815;55.932;-3.232;2022-10-23T05:51:57;99669.81;;;17.94;65.95
52953;BME280;38815;55.932;-3.232;2022-10-23T05:54:22;99667.75;;;17.94;65.57
52953;BME280;38815;55.932;-3.232;2022-10-23T05:56:48;99659.31;;;17.94;65.70
52953;BME280;38815;55.932;-3.232;2022-10-23T05:59:13;99652.91;;;17.94;65.64
52953;BME280;38815;55.932;-3.232;2022-10-23T06:01:39;99657.78;;;17.93;65.73
52953;BME280;38815;55.932;-3.232;2022-10-23T06:04:04;99647.25;;;17.94;65.67
52953;BME280;38815;55.932;-3.232;2022-10-23T06:06:30;99642.94;;;17.93;65.90
52953;BME280;38815;55.932;-3.232;2022-10-23T06:08:55;99633.72;;;17.92;65.90
52953;BME280;38815;55.932;-3.232;2022-10-23T06:11:20;99628.84;;;17.93;65.63
52953;BME280;38815;55.932;-3.232;2022-10-23T06:13:46;99644.25;;;17.92;65.69
52953;BME280;38815;55.932;-3.232;2022-10-23T06:18:40;99633.53;;;17.90;65.73
52953;BME280;38815;55.932;-3.232;2022-10-23T06:21:06;99630.69;;;17.90;65.77
52953;BME280;38815;55.932;-3.232;2022-10-23T06:23:32;99619.41;;;17.90;65.78
52953;BME280;38815;55.932;-3.232;2022-10-23T06:25:57;99629.94;;;17.90;65.98
52953;BME280;38815;55.932;-3.232;2022-10-23T06:28:22;99632.03;;;17.89;65.71
52953;BME280;38815;55.932;-3.232;2022-10-23T06:30:48;99632.75;;;17.90;66.02
52953;BME280;38815;55.932;-3.232;2022-10-23T06:33:13;99627.69;;;17.88;65.90
52953;BME280;38815;55.932;-3.232;2022-10-23T06:35:38;99629.75;;;17.88;65.96
52953;BME280;38815;55.932;-3.232;2022-10-23T06:38:04;99629.75;;;17.88;66.02
52953;BME280;38815;55.932;-3.232;2022-10-23T06:40:29;99632.59;;;17.88;65.55
52953;BME280;38815;55.932;-3.232;2022-10-23T06:42:56;99631.06;;;17.87;65.56
52953;BME280;38815;55.932;-3.232;2022-10-23T06:45:22;99626.19;;;17.87;65.63
52953;BME280;38815;55.932;-3.232;2022-10-23T06:47:50;99619.78;;;17.87;65.78
52953;BME280;38815;55.932;-3.232;2022-10-23T06:50:16;99620.53;;;17.87;65.93
52953;BME280;38815;55.932;-3.232;2022-10-23T06:52:41;99620.53;;;17.87;65.88
52953;BME280;38815;55.932;-3.232;2022-10-23T06:55:06;99616.97;;;17.87;65.89
52953;BME280;38815;55.932;-3.232;2022-10-23T06:57:32;99611.31;;;17.87;65.70
52953;BME280;38815;55.932;-3.232;2022-10-23T06:59:57;99618.28;;;17.86;65.56
52953;BME280;38815;55.932;-3.232;2022-10-23T07:02:22;99617.53;;;17.85;65.83
52953;BME280;38815;55.932;-3.232;2022-10-23T07:04:47;99621.09;;;17.86;65.57
52953;BME280;38815;55.932;-3.232;2022-10-23T07:07:13;99628.78;;;17.85;65.38
52953;BME280;38815;55.932;-3.232;2022-10-23T07:09:38;99632.94;;;17.84;65.57
52953;BME280;38815;55.932;-3.232;2022-10-23T07:12:03;99634.22;;;17.83;65.84
52953;BME280;38815;55.932;-3.232;2022-10-23T07:14:29;99630.13;;;17.84;65.59
52953;BME280;38815;55.932;-3.232;2022-10-23T07:16:56;99631.41;;;17.83;65.49
52953;BME280;38815;55.932;-3.232;2022-10-23T07:19:21;99631.41;;;17.83;65.60
52953;BME280;38815;55.932;-3.232;2022-10-23T07:21:47;99629.34;;;17.84;65.52
52953;BME280;38815;55.932;-3.232;2022-10-23T07:24:12;99629.34;;;17.84;65.62
52953;BME280;38815;55.932;-3.232;2022-10-23T07:26:37;99637.06;;;17.83;65.72
52953;BME280;38815;55.932;-3.232;2022-10-23T07:29:03;99636.28;;;17.83;65.71
52953;BME280;38815;55.932;-3.232;2022-10-23T07:31:28;99638.38;;;17.82;65.46
52953;BME280;38815;55.932;-3.232;2022-10-23T07:33:53;99636.28;;;17.83;65.75
52953;BME280;38815;55.932;-3.232;2022-10-23T07:36:19;99638.38;;;17.82;65.59
52953;BME280;38815;55.932;-3.232;2022-10-23T07:38:44;99631.97;;;17.82;65.45
52953;BME280;38815;55.932;-3.232;2022-10-23T07:41:09;99636.84;;;17.81;65.96
52953;BME280;38815;55.932;-3.232;2022-10-23T07:43:35;99639.66;;;17.81;65.65
52953;BME280;38815;55.932;-3.232;2022-10-23T07:46:00;99629.16;;;17.82;65.64
52953;BME280;38815;55.932;-3.232;2022-10-23T07:48:26;99627.66;;;17.81;65.59
52953;BME280;38815;55.932;-3.232;2022-10-23T07:50:52;99632.53;;;17.80;65.41
52953;BME280;38815;55.932;-3.232;2022-10-23T07:53:18;99626.13;;;17.80;65.69
52953;BME280;38815;55.932;-3.232;2022-10-23T07:55:53;99631.78;;;17.80;65.48
52953;BME280;38815;55.932;-3.232;2022-10-23T07:58:20;99630.28;;;17.79;65.49
52953;BME280;38815;55.932;-3.232;2022-10-23T08:00:45;99635.91;;;17.79;65.46
52953;BME280;38815;55.932;-3.232;2022-10-23T08:03:16;99630.28;;;17.79;65.73
52953;BME280;38815;55.932;-3.232;2022-10-23T08:05:41;99634.59;;;17.80;65.47
52953;BME280;38815;55.932;-3.232;2022-10-23T08:08:07;99624.06;;;17.80;65.58
52953;BME280;38815;55.932;-3.232;2022-10-23T08:10:32;99613.56;;;17.81;65.49
52953;BME280;38815;55.932;-3.232;2022-10-23T08:12:57;99606.59;;;17.82;65.72
52953;BME280;38815;55.932;-3.232;2022-10-23T08:15:23;99608.09;;;17.83;65.60
52953;BME280;38815;55.932;-3.232;2022-10-23T08:17:48;99606.81;;;17.84;65.62
52953;BME280;38815;55.932;-3.232;2022-10-23T08:20:13;99599.09;;;17.84;65.29
52953;BME280;38815;55.932;-3.232;2022-10-23T08:22:38;99603.63;;;17.87;65.47
52953;BME280;38815;55.932;-3.232;2022-10-23T08:25:04;99605.88;;;17.89;65.38
52953;BME280;38815;55.932;-3.232;2022-10-23T08:27:29;99608.16;;;17.90;65.03
52953;BME280;38815;55.932;-3.232;2022-10-23T08:29:55;99600.66;;;17.93;64.99
52953;BME280;38815;55.932;-3.232;2022-10-23T08:32:20;99602.13;;;17.94;65.30
52953;BME280;38815;55.932;-3.232;2022-10-23T08:34:45;99599.53;;;17.96;64.79
52953;BME280;38815;55.932;-3.232;2022-10-23T08:37:10;99591.06;;;17.96;64.89
52953;BME280;38815;55.932;-3.232;2022-10-23T08:39:36;99591.25;;;17.98;64.98
52953;BME280;38815;55.932;-3.232;2022-10-23T08:42:01;99589.19;;;17.98;64.93
52953;BME280;38815;55.932;-3.232;2022-10-23T08:44:31;99580.19;;;18.00;65.43
52953;BME280;38815;55.932;-3.232;2022-10-23T08:49:34;99589.56;;;18.02;65.54
52953;BME280;38815;55.932;-3.232;2022-10-23T08:52:01;99584.91;;;18.05;65.57
52953;BME280;38815;55.932;-3.232;2022-10-23T08:54:33;99582.25;;;18.07;65.65
52953;BME280;38815;55.932;-3.232;2022-10-23T08:57:03;99580.38;;;18.09;65.87
52953;BME280;38815;55.932;-3.232;2022-10-23T08:59:35;99583.41;;;18.11;65.98
52953;BME280;38815;55.932;-3.232;2022-10-23T09:04:29;99590.75;;;18.14;65.89
52953;BME280;38815;55.932;-3.232;2022-10-23T09:12:18;99576.47;;;18.20;66.08
52953;BME280;38815;55.932;-3.232;2022-10-23T09:14:56;99589.25;;;18.21;66.23
52953;BME280;38815;55.932;-3.232;2022-10-23T09:17:28;99584.38;;;18.21;66.12
52953;BME280;38815;55.932;-3.232;2022-10-23T09:20:40;99583.81;;;18.23;66.12
52953;BME280;38815;55.932;-3.232;2022-10-23T09:22:40;99568.38;;;18.24;65.97
52953;BME280;38815;55.932;-3.232;2022-10-23T09:25:09;99574.03;;;18.24;66.31
52953;BME280;38815;55.932;-3.232;2022-10-23T09:27:36;99583.25;;;18.24;65.84
52953;BME280;38815;55.932;-3.232;2022-10-23T09:30:01;99575.53;;;18.25;65.22
52953;BME280;38815;55.932;-3.232;2022-10-23T09:32:36;99574.78;;;18.24;65.19
52953;BME280;38815;55.932;-3.232;2022-10-23T09:35:02;99579.13;;;18.25;65.28
52953;BME280;38815;55.932;-3.232;2022-10-23T09:37:29;99584.78;;;18.25;65.45
52953;BME280;38815;55.932;-3.232;2022-10-23T09:42:29;99578.38;;;18.25;65.45
52953;BME280;38815;55.932;-3.232;2022-10-23T09:44:54;99571.41;;;18.26;65.09
52953;BME280;38815;55.932;-3.232;2022-10-23T09:47:22;99565.03;;;18.25;65.31
52953;BME280;38815;55.932;-3.232;2022-10-23T09:49:52;99574.22;;;18.26;65.19
52953;BME280;38815;55.932;-3.232;2022-10-23T09:54:51;99571.41;;;18.26;65.25
52953;BME280;38815;55.932;-3.232;2022-10-23T10:00:03;99570.66;;;18.25;65.55
52953;BME280;38815;55.932;-3.232;2022-10-23T10:04:54;99567.06;;;18.25;65.25
52953;BME280;38815;55.932;-3.232;2022-10-23T10:07:20;99557.28;;;18.26;64.78
52953;BME280;38815;55.932;-3.232;2022-10-23T10:09:46;99547.34;;;18.25;65.04
52953;BME280;38815;55.932;-3.232;2022-10-23T10:14:47;99538.09;;;18.24;65.30
52953;BME280;38815;55.932;-3.232;2022-10-23T10:17:22;99528.34;;;18.25;65.32
52953;BME280;38815;55.932;-3.232;2022-10-23T10:24:48;99518.34;;;18.24;65.39
52953;BME280;38815;55.932;-3.232;2022-10-23T10:29:58;99517.06;;;18.25;65.03
52953;BME280;38815;55.932;-3.232;2022-10-23T10:35:09;99516.28;;;18.25;64.98
52953;BME280;38815;55.932;-3.232;2022-10-23T10:40:09;99510.66;;;18.25;65.19
52953;BME280;38815;55.932;-3.232;2022-10-23T10:43:01;99502.94;;;18.25;65.06
52953;BME280;38815;55.932;-3.232;2022-10-23T10:48:06;99508.41;;;18.23;64.75
52953;BME280;38815;55.932;-3.232;2022-10-23T10:50:42;99497.31;;;18.25;64.85
52953;BME280;38815;55.932;-3.232;2022-10-23T10:55:41;99487.31;;;18.24;65.24
52953;BME280;38815;55.932;-3.232;2022-10-23T11:00:55;99490.72;;;18.23;65.15
52953;BME280;38815;55.932;-3.232;2022-10-23T11:05:53;99493.53;;;18.23;65.12
52953;BME280;38815;55.932;-3.232;2022-10-23T11:10:50;99496.34;;;18.23;65.08
52953;BME280;38815;55.932;-3.232;2022-10-23T11:13:27;99495.59;;;18.22;65.21
52953;BME280;38815;55.932;-3.232;2022-10-23T11:15:55;99491.28;;;18.21;64.91
52953;BME280;38815;55.932;-3.232;2022-10-23T11:18:24;99480.75;;;18.22;65.34
52953;BME280;38815;55.932;-3.232;2022-10-23T11:26:04;99475.09;;;18.22;65.03
52953;BME280;38815;55.932;-3.232;2022-10-23T11:28:37;99477.94;;;18.22;65.04
52953;BME280;38815;55.932;-3.232;2022-10-23T11:31:21;99474.34;;;18.21;65.11
52953;BME280;38815;55.932;-3.232;2022-10-23T11:39:53;99465.88;;;18.21;65.28
52953;BME280;38815;55.932;-3.232;2022-10-23T11:41:51;99463.81;;;18.22;65.01
52953;BME280;38815;55.932;-3.232;2022-10-23T11:47:02;99449.72;;;18.22;65.27
52953;BME280;38815;55.932;-3.232;2022-10-23T11:49:27;99444.81;;;18.22;65.03
52953;BME280;38815;55.932;-3.232;2022-10-23T11:51:59;99439.16;;;18.22;65.12
52953;BME280;38815;55.932;-3.232;2022-10-23T11:54:25;99437.88;;;18.23;64.87
52953;BME280;38815;55.932;-3.232;2022-10-23T11:59:29;99426.41;;;18.21;64.53
52953;BME280;38815;55.932;-3.232;2022-10-23T12:01:56;99420.00;;;18.21;64.85
52953;BME280;38815;55.932;-3.232;2022-10-23T12:04:24;99419.41;;;18.22;65.22
52953;BME280;38815;55.932;-3.232;2022-10-23T12:06:52;99419.06;;;18.18;64.46
52953;BME280;38815;55.932;-3.232;2022-10-23T12:09:21;99415.09;;;18.21;64.97
52953;BME280;38815;55.932;-3.232;2022-10-23T12:11:48;99402.50;;;18.22;65.35
52953;BME280;38815;55.932;-3.232;2022-10-23T12:14:30;99391.59;;;18.26;65.73
52953;BME280;38815;55.932;-3.232;2022-10-23T12:16:56;99383.50;;;18.30;65.65
52953;BME280;38815;55.932;-3.232;2022-10-23T12:19:22;99383.69;;;18.32;65.80
52953;BME280;38815;55.932;-3.232;2022-10-23T12:21:56;99382.00;;;18.37;65.84
52953;BME280;38815;55.932;-3.232;2022-10-23T12:26:52;99368.25;;;18.41;65.96
52953;BME280;38815;55.932;-3.232;2022-10-23T12:29:31;99355.88;;;18.44;65.62
52953;BME280;38815;55.932;-3.232;2022-10-23T12:39:33;99331.94;;;18.52;66.05
52953;BME280;38815;55.932;-3.232;2022-10-23T12:42:02;99337.78;;;18.54;65.64
52953;BME280;38815;55.932;-3.232;2022-10-23T12:44:27;99332.88;;;18.55;65.83
52953;BME280;38815;55.932;-3.232;2022-10-23T12:46:53;99337.22;;;18.56;65.58
52953;BME280;38815;55.932;-3.232;2022-10-23T12:49:21;99325.91;;;18.56;65.85
52953;BME280;38815;55.932;-3.232;2022-10-23T12:54:42;99308.22;;;18.55;66.16
52953;BME280;38815;55.932;-3.232;2022-10-23T12:57:26;99308.41;;;18.57;66.01
52953;BME280;38815;55.932;-3.232;2022-10-23T12:59:56;99295.59;;;18.56;66.39
52953;BME280;38815;55.932;-3.232;2022-10-23T13:02:26;99299.19;;;18.57;66.63
52953;BME280;38815;55.932;-3.232;2022-10-23T13:04:52;99295.59;;;18.56;67.13
52953;BME280;38815;55.932;-3.232;2022-10-23T13:07:20;99290.72;;;18.57;66.99
52953;BME280;38815;55.932;-3.232;2022-10-23T13:09:47;99270.44;;;18.51;67.43
52953;BME280;38815;55.932;-3.232;2022-10-23T13:15:18;99270.78;;;18.55;67.11
52953;BME280;38815;55.932;-3.232;2022-10-23T13:17:44;99267.94;;;18.55;67.16
52953;BME280;38815;55.932;-3.232;2022-10-23T13:22:41;99260.06;;;18.53;66.84
52953;BME280;38815;55.932;-3.232;2022-10-23T13:25:26;99260.06;;;18.53;67.02
52953;BME280;38815;55.932;-3.232;2022-10-23T13:30:30;99254.22;;;18.51;66.87
52953;BME280;38815;55.932;-3.232;2022-10-23T13:32:56;99251.41;;;18.51;66.73
52953;BME280;38815;55.932;-3.232;2022-10-23T13:35:22;99245.03;;;18.51;67.11
52953;BME280;38815;55.932;-3.232;2022-10-23T13:37:47;99241.44;;;18.50;66.75
52953;BME280;38815;55.932;-3.232;2022-10-23T13:40:31;99238.63;;;18.50;66.93
52953;BME280;38815;55.932;-3.232;2022-10-23T13:42:56;99235.63;;;18.48;66.53
52953;BME280;38815;55.932;-3.232;2022-10-23T13:45:22;99227.16;;;18.48;66.87
52953;BME280;38815;55.932;-3.232;2022-10-23T13:47:48;99229.22;;;18.48;66.73
52953;BME280;38815;55.932;-3.232;2022-10-23T13:50:14;99219.25;;;18.47;66.70
52953;BME280;38815;55.932;-3.232;2022-10-23T13:52:39;99207.97;;;18.47;66.78
52953;BME280;38815;55.932;-3.232;2022-10-23T13:55:16;99207.22;;;18.46;66.65
52953;BME280;38815;55.932;-3.232;2022-10-23T13:57:42;99198.75;;;18.46;66.43
52953;BME280;38815;55.932;-3.232;2022-10-23T14:00:08;99198.03;;;18.46;66.48
52953;BME280;38815;55.932;-3.232;2022-10-23T14:02:33;99188.03;;;18.45;66.85
52953;BME280;38815;55.932;-3.232;2022-10-23T14:04:58;99188.03;;;18.45;66.74
52953;BME280;38815;55.932;-3.232;2022-10-23T14:07:24;99182.41;;;18.45;66.23
52953;BME280;38815;55.932;-3.232;2022-10-23T14:09:49;99180.91;;;18.44;66.30
52953;BME280;38815;55.932;-3.232;2022-10-23T14:12:14;99180.16;;;18.43;66.42
52953;BME280;38815;55.932;-3.232;2022-10-23T14:14:40;99180.16;;;18.43;66.41
52953;BME280;38815;55.932;-3.232;2022-10-23T14:17:05;99179.38;;;18.43;66.21
52953;BME280;38815;55.932;-3.232;2022-10-23T14:19:31;99166.63;;;18.42;66.51
52953;BME280;38815;55.932;-3.232;2022-10-23T14:21:57;99164.56;;;18.42;66.25
52953;BME280;38815;55.932;-3.232;2022-10-23T14:24:22;99174.31;;;18.41;66.24
52953;BME280;38815;55.932;-3.232;2022-10-23T14:26:47;99173.56;;;18.41;66.17
52953;BME280;38815;55.932;-3.232;2022-10-23T14:29:12;99162.28;;;18.41;66.51
52953;BME280;38815;55.932;-3.232;2022-10-23T14:31:38;99157.97;;;18.40;66.15
52953;BME280;38815;55.932;-3.232;2022-10-23T14:34:03;99152.31;;;18.40;66.43
52953;BME280;38815;55.932;-3.232;2022-10-23T14:36:28;99151.53;;;18.39;66.03
52953;BME280;38815;55.932;-3.232;2022-10-23T14:38:57;99146.69;;;18.40;66.19
52953;BME280;38815;55.932;-3.232;2022-10-23T14:41:23;99150.81;;;18.39;66.03
52953;BME280;38815;55.932;-3.232;2022-10-23T14:43:49;99147.97;;;18.39;66.00
52953;BME280;38815;55.932;-3.232;2022-10-23T14:46:15;99140.09;;;18.37;66.18
52953;BME280;38815;55.932;-3.232;2022-10-23T14:48:41;99142.91;;;18.37;66.23
52953;BME280;38815;55.932;-3.232;2022-10-23T14:51:13;99135.19;;;18.38;66.66
52953;BME280;38815;55.932;-3.232;2022-10-23T14:53:40;99135.94;;;18.38;66.74
52953;BME280;38815;55.932;-3.232;2022-10-23T14:56:05;99121.84;;;18.38;67.12